Darstellungsparameter: Aktuell verwendete Einstellungen:
Skalierung der Graphiken ... ?
xyx+y,   Skalierungsfaktor:      Skalierung: Modus: x, Faktor: 1
Darstellungszeitraum ... ?
Vom - - bis: - -   Zeitraum: 05.06.2022 - 05.06.2022
Min/Max/Avg-Anzeige ... ?
Zeige MMA aktuell
Zeige MMA Monat
Zeige MMA alles
Zeige --A aktuell
Zeige --A Monat
Zeige --A alles
Keine MMA-Anzeige
MMA:
Average (ber die Originaldaten)
MMA-Basis: 05.06.2022 - 05.06.2022
Quicknavigation für Darstellung... ?
Tage:      1T, 2T, 3T, 5T -1T -2T -3T -5T +1T +2T +3T +5T
Wochen: 1W, 2W, 3W -1W -2W -3W +1W +2W +3W
Monate: 1M, 3M, 6M -1M -3M -6M +1M +3M +6M
Jahre:    1J, 3J, 5J, 10J -1J -3J -5J -10J +1J +3J +5J +10J
Nutze für die Darstellung ... ?
Originaldaten oder Mittelwerte auf ...
Stundenbasis Tagesbasis Wochenbasis
Monatsbasis Jahresbasis      Datenbasis: Original-Daten
Darstellen als:
Statistik (Auto) Statistik J:M      Darstellung:
Zur Graphik,    zurück zur Übersicht aller Sensoren.
 
Tabellarische Datenbersicht: ?
 
Sensor: Nr:Datum:Temp:Abs-Feuchte:Windchill:Wind:
Aussen-T/F 1 05-06-2022 00:00:00 18.8 C 12.72 g/m*3 18.8 C 1.6 km/h
2 05-06-2022 00:05:00 18.7 C 12.81 g/m*3 18.7 C 1.6 km/h
3 05-06-2022 00:10:00 18.6 C 12.73 g/m*3 18.6 C 1.6 km/h
4 05-06-2022 00:15:00 18.4 C 12.58 g/m*3 18.4 C 0 km/h
5 05-06-2022 00:20:00 18.4 C 12.74 g/m*3 18.4 C 1.6 km/h
6 05-06-2022 00:25:00 18.3 C 12.66 g/m*3 18.3 C 0 km/h
7 05-06-2022 00:30:00 18.2 C 12.75 g/m*3 18.2 C 1.6 km/h
8 05-06-2022 00:35:00 18.3 C 12.66 g/m*3 18.3 C 6.4 km/h
9 05-06-2022 00:40:00 18.4 C 12.9 g/m*3 18.4 C 1.6 km/h
10 05-06-2022 00:45:00 18.4 C 12.74 g/m*3 18.4 C 0 km/h
11 05-06-2022 00:50:00 18.4 C 12.74 g/m*3 18.4 C 0 km/h
12 05-06-2022 00:55:00 18.4 C 12.74 g/m*3 18.4 C 6.4 km/h
13 05-06-2022 01:00:00 18.4 C 12.74 g/m*3 18.4 C 3.2 km/h
14 05-06-2022 01:05:00 18.4 C 12.74 g/m*3 18.4 C 3.2 km/h
15 05-06-2022 01:10:00 18.4 C 12.74 g/m*3 18.4 C 4.8 km/h
16 05-06-2022 01:15:00 18.4 C 12.74 g/m*3 18.4 C 3.2 km/h
17 05-06-2022 01:20:00 18.4 C 12.74 g/m*3 18.4 C 1.6 km/h
18 05-06-2022 01:25:00 18.4 C 12.74 g/m*3 18.4 C 4.8 km/h
19 05-06-2022 01:30:00 18.4 C 12.74 g/m*3 18.4 C 0 km/h
20 05-06-2022 01:35:00 18.4 C 12.74 g/m*3 18.4 C 6.4 km/h
21 05-06-2022 01:40:00 18.3 C 12.66 g/m*3 18.3 C 1.6 km/h
22 05-06-2022 01:45:00 18.2 C 12.59 g/m*3 18.2 C 1.6 km/h
23 05-06-2022 01:50:00 18.1 C 12.52 g/m*3 18.1 C 1.6 km/h
24 05-06-2022 01:55:00 17.9 C 12.52 g/m*3 17.9 C 0 km/h
25 05-06-2022 02:00:00 17.8 C 12.45 g/m*3 17.8 C 3.2 km/h
Sensor: Nr:Datum:Temp:Abs-Feuchte:Windchill:Wind:
Aussen-T/F 26 05-06-2022 02:05:00 17.7 C 12.52 g/m*3 17.7 C 3.2 km/h
27 05-06-2022 02:10:00 17.6 C 12.45 g/m*3 17.6 C 0 km/h
28 05-06-2022 02:15:00 17.4 C 12.3 g/m*3 17.4 C 0 km/h
29 05-06-2022 02:20:00 17.3 C 12.37 g/m*3 17.3 C 1.6 km/h
30 05-06-2022 02:25:00 17.2 C 12.3 g/m*3 17.2 C 1.6 km/h
31 05-06-2022 02:30:00 17.1 C 12.37 g/m*3 17.1 C 1.6 km/h
32 05-06-2022 02:35:00 16.9 C 12.23 g/m*3 16.9 C 0 km/h
33 05-06-2022 02:40:00 16.9 C 12.37 g/m*3 16.9 C 0 km/h
34 05-06-2022 02:45:00 16.9 C 12.37 g/m*3 16.9 C 0 km/h
35 05-06-2022 02:50:00 16.8 C 12.3 g/m*3 16.8 C 0 km/h
36 05-06-2022 02:55:00 16.8 C 12.3 g/m*3 16.8 C 0 km/h
37 05-06-2022 03:00:00 16.8 C 12.44 g/m*3 16.8 C 0 km/h
38 05-06-2022 03:05:00 16.8 C 12.3 g/m*3 16.8 C 1.6 km/h
39 05-06-2022 03:10:00 16.8 C 12.3 g/m*3 16.8 C 0 km/h
40 05-06-2022 03:15:00 16.8 C 12.44 g/m*3 16.8 C 0 km/h
41 05-06-2022 03:20:00 16.7 C 12.36 g/m*3 16.7 C 0 km/h
42 05-06-2022 03:25:00 16.7 C 12.36 g/m*3 16.7 C 0 km/h
43 05-06-2022 03:30:00 16.7 C 12.36 g/m*3 16.7 C 0 km/h
44 05-06-2022 03:35:00 16.6 C 12.29 g/m*3 16.6 C 0 km/h
45 05-06-2022 03:40:00 16.6 C 12.29 g/m*3 16.6 C 0 km/h
46 05-06-2022 03:45:00 16.6 C 12.29 g/m*3 16.6 C 1.6 km/h
47 05-06-2022 03:50:00 16.5 C 12.22 g/m*3 16.5 C 0 km/h
48 05-06-2022 03:55:00 16.4 C 12.14 g/m*3 16.4 C 0 km/h
49 05-06-2022 04:00:00 16.3 C 12.07 g/m*3 16.3 C 0 km/h
50 05-06-2022 04:05:00 16.3 C 12.07 g/m*3 16.3 C 0 km/h
Sensor: Nr:Datum:Temp:Abs-Feuchte:Windchill:Wind:
Aussen-T/F 51 05-06-2022 04:10:00 16.2 C 12 g/m*3 16.2 C 0 km/h
52 05-06-2022 04:15:00 16.2 C 12.14 g/m*3 16.2 C 0 km/h
53 05-06-2022 04:20:00 16.2 C 12.14 g/m*3 16.2 C 3.2 km/h
54 05-06-2022 04:25:00 16.3 C 12.35 g/m*3 16.3 C 6.4 km/h
55 05-06-2022 04:30:00 16.6 C 12.43 g/m*3 16.6 C 8.1 km/h
56 05-06-2022 04:35:00 16.8 C 12.58 g/m*3 16.8 C 8.1 km/h
57 05-06-2022 04:40:00 17.2 C 12.59 g/m*3 17.2 C 9.7 km/h
58 05-06-2022 04:45:00 17.7 C 12.67 g/m*3 17.7 C 12.9 km/h
59 05-06-2022 04:50:00 18 C 12.75 g/m*3 18 C 14.5 km/h
60 05-06-2022 04:55:00 18.1 C 12.67 g/m*3 18.1 C 8.1 km/h
61 05-06-2022 05:00:00 18.2 C 12.59 g/m*3 18.2 C 4.8 km/h
62 05-06-2022 05:05:00 18.3 C 12.66 g/m*3 18.3 C 11.3 km/h
63 05-06-2022 05:10:00 18.3 C 12.66 g/m*3 18.3 C 4.8 km/h
64 05-06-2022 05:15:00 18.3 C 12.51 g/m*3 18.3 C 6.4 km/h
65 05-06-2022 05:20:00 18.3 C 12.51 g/m*3 18.3 C 3.2 km/h
66 05-06-2022 05:25:00 18.3 C 12.51 g/m*3 18.3 C 6.4 km/h
67 05-06-2022 05:30:00 18.3 C 12.51 g/m*3 18.3 C 6.4 km/h
68 05-06-2022 05:35:00 18.3 C 12.51 g/m*3 18.3 C 8.1 km/h
69 05-06-2022 05:40:00 18.3 C 12.51 g/m*3 18.3 C 11.3 km/h
70 05-06-2022 05:45:00 18.3 C 12.51 g/m*3 18.3 C 6.4 km/h
71 05-06-2022 05:50:00 18.3 C 12.66 g/m*3 18.3 C 1.6 km/h
72 05-06-2022 05:55:00 18.2 C 12.59 g/m*3 18.2 C 0 km/h
73 05-06-2022 06:00:00 18.1 C 12.52 g/m*3 18.1 C 3.2 km/h
74 05-06-2022 06:05:00 18 C 12.44 g/m*3 18 C 3.2 km/h
75 05-06-2022 06:10:00 17.9 C 12.52 g/m*3 17.9 C 0 km/h
Sensor: Nr:Datum:Temp:Abs-Feuchte:Windchill:Wind:
Aussen-T/F 76 05-06-2022 06:15:00 17.8 C 12.45 g/m*3 17.8 C 0 km/h
77 05-06-2022 06:20:00 17.8 C 12.6 g/m*3 17.8 C 1.6 km/h
78 05-06-2022 06:25:00 17.7 C 12.52 g/m*3 17.7 C 0 km/h
79 05-06-2022 06:30:00 17.6 C 12.6 g/m*3 17.6 C 0 km/h
80 05-06-2022 06:35:00 17.6 C 12.6 g/m*3 17.6 C 0 km/h
81 05-06-2022 06:40:00 17.6 C 12.6 g/m*3 17.6 C 0 km/h
82 05-06-2022 06:45:00 17.5 C 12.67 g/m*3 17.5 C 0 km/h
83 05-06-2022 06:50:00 17.5 C 12.67 g/m*3 17.5 C 0 km/h
84 05-06-2022 06:55:00 17.5 C 12.82 g/m*3 17.5 C 0 km/h
85 05-06-2022 07:00:00 17.6 C 12.9 g/m*3 17.6 C 0 km/h
86 05-06-2022 07:05:00 17.6 C 13.05 g/m*3 17.6 C 0 km/h
87 05-06-2022 07:10:00 17.6 C 13.05 g/m*3 17.6 C 0 km/h
88 05-06-2022 07:15:00 17.6 C 13.05 g/m*3 17.6 C 0 km/h
89 05-06-2022 07:20:00 17.6 C 13.05 g/m*3 17.6 C 0 km/h
90 05-06-2022 07:25:00 17.6 C 13.05 g/m*3 17.6 C 0 km/h
91 05-06-2022 07:30:00 17.6 C 13.05 g/m*3 17.6 C 0 km/h
92 05-06-2022 07:35:00 17.6 C 13.05 g/m*3 17.6 C 0 km/h
93 05-06-2022 07:40:00 17.6 C 13.05 g/m*3 17.6 C 0 km/h
94 05-06-2022 07:45:00 17.5 C 12.97 g/m*3 17.5 C 0 km/h
95 05-06-2022 07:50:00 17.5 C 12.97 g/m*3 17.5 C 0 km/h
96 05-06-2022 07:55:00 17.5 C 13.12 g/m*3 17.5 C 0 km/h
97 05-06-2022 08:00:00 17.5 C 12.97 g/m*3 17.5 C 1.6 km/h
98 05-06-2022 08:05:00 17.5 C 12.97 g/m*3 17.5 C 0 km/h
99 05-06-2022 08:10:00 17.5 C 13.12 g/m*3 17.5 C 1.6 km/h
100 05-06-2022 08:15:00 17.5 C 13.12 g/m*3 17.5 C 4.8 km/h
Sensor: Nr:Datum:Temp:Abs-Feuchte:Windchill:Wind:
Aussen-T/F 101 05-06-2022 08:20:00 17.6 C 13.2 g/m*3 17.6 C 0 km/h
102 05-06-2022 08:25:00 17.6 C 13.35 g/m*3 17.6 C 1.6 km/h
103 05-06-2022 08:30:00 17.7 C 13.43 g/m*3 17.7 C 0 km/h
104 05-06-2022 08:35:00 17.7 C 13.43 g/m*3 17.7 C 3.2 km/h
105 05-06-2022 08:40:00 17.7 C 13.43 g/m*3 17.7 C 1.6 km/h
106 05-06-2022 08:45:00 17.7 C 13.43 g/m*3 17.7 C 0 km/h
107 05-06-2022 08:50:00 17.8 C 13.66 g/m*3 17.8 C 1.6 km/h
108 05-06-2022 08:55:00 17.8 C 13.66 g/m*3 17.8 C 0 km/h
109 05-06-2022 09:00:00 17.9 C 13.89 g/m*3 17.9 C 0 km/h
110 05-06-2022 09:05:00 18.1 C 13.91 g/m*3 18.1 C 0 km/h
111 05-06-2022 09:10:00 18.2 C 13.99 g/m*3 18.2 C 0 km/h
112 05-06-2022 09:15:00 18.2 C 13.99 g/m*3 18.2 C 0 km/h
113 05-06-2022 09:20:00 18.3 C 14.07 g/m*3 18.3 C 0 km/h
114 05-06-2022 09:25:00 18.4 C 14.16 g/m*3 18.4 C 1.6 km/h
115 05-06-2022 09:30:00 18.6 C 14.17 g/m*3 18.6 C 3.2 km/h
116 05-06-2022 09:35:00 18.7 C 14.09 g/m*3 18.7 C 3.2 km/h
117 05-06-2022 09:40:00 18.8 C 14.01 g/m*3 18.8 C 1.6 km/h
118 05-06-2022 09:45:00 18.9 C 14.09 g/m*3 18.9 C 0 km/h
119 05-06-2022 09:50:00 19.1 C 14.43 g/m*3 19.1 C 0 km/h
120 05-06-2022 09:55:00 19.2 C 14.51 g/m*3 19.2 C 0 km/h
121 05-06-2022 10:00:00 19.3 C 14.76 g/m*3 19.3 C 0 km/h
122 05-06-2022 10:05:00 19.3 C 14.6 g/m*3 19.3 C 1.6 km/h
123 05-06-2022 10:10:00 19.3 C 14.6 g/m*3 19.3 C 0 km/h
124 05-06-2022 10:15:00 19.2 C 14.51 g/m*3 19.2 C 0 km/h
125 05-06-2022 10:20:00 19.1 C 14.43 g/m*3 19.1 C 0 km/h
Sensor: Nr:Datum:Temp:Abs-Feuchte:Windchill:Wind:
Aussen-T/F 126 05-06-2022 10:25:00 19 C 14.5 g/m*3 19 C 0 km/h
127 05-06-2022 10:30:00 18.9 C 14.42 g/m*3 18.9 C 0 km/h
128 05-06-2022 10:35:00 18.9 C 14.42 g/m*3 18.9 C 0 km/h
129 05-06-2022 10:40:00 18.8 C 14.49 g/m*3 18.8 C 0 km/h
130 05-06-2022 10:45:00 18.8 C 14.49 g/m*3 18.8 C 0 km/h
131 05-06-2022 10:50:00 18.8 C 14.49 g/m*3 18.8 C 0 km/h
132 05-06-2022 10:55:00 18.8 C 14.66 g/m*3 18.8 C 0 km/h
133 05-06-2022 11:00:00 18.7 C 14.57 g/m*3 18.7 C 0 km/h
134 05-06-2022 11:05:00 18.7 C 14.57 g/m*3 18.7 C 0 km/h
135 05-06-2022 11:10:00 18.5 C 14.4 g/m*3 18.5 C 0 km/h
136 05-06-2022 11:15:00 18.4 C 14.47 g/m*3 18.4 C 1.6 km/h
137 05-06-2022 11:20:00 18.4 C 14.63 g/m*3 18.4 C 1.6 km/h
138 05-06-2022 11:25:00 18.4 C 14.63 g/m*3 18.4 C 3.2 km/h
139 05-06-2022 11:30:00 18.3 C 14.54 g/m*3 18.3 C 1.6 km/h
140 05-06-2022 11:35:00 18.3 C 14.54 g/m*3 18.3 C 1.6 km/h
141 05-06-2022 11:40:00 18.3 C 14.54 g/m*3 18.3 C 4.8 km/h
142 05-06-2022 11:45:00 18.3 C 14.54 g/m*3 18.3 C 6.4 km/h
143 05-06-2022 11:50:00 18.4 C 14.63 g/m*3 18.4 C 9.7 km/h
144 05-06-2022 11:55:00 18.4 C 14.63 g/m*3 18.4 C 9.7 km/h
145 05-06-2022 12:00:00 18.4 C 14.63 g/m*3 18.4 C 4.8 km/h
146 05-06-2022 12:05:00 18.5 C 14.87 g/m*3 18.5 C 3.2 km/h
147 05-06-2022 12:10:00 18.6 C 14.96 g/m*3 18.6 C 4.8 km/h
148 05-06-2022 12:15:00 18.6 C 14.96 g/m*3 18.6 C 1.6 km/h
149 05-06-2022 12:20:00 18.7 C 15.05 g/m*3 18.7 C 1.6 km/h
150 05-06-2022 12:25:00 18.7 C 15.05 g/m*3 18.7 C 6.4 km/h
Sensor: Nr:Datum:Temp:Abs-Feuchte:Windchill:Wind:
Aussen-T/F 151 05-06-2022 12:30:00 18.6 C 14.8 g/m*3 18.6 C 8.1 km/h
152 05-06-2022 12:35:00 18.6 C 14.96 g/m*3 18.6 C 4.8 km/h
153 05-06-2022 12:40:00 18.6 C 14.96 g/m*3 18.6 C 0 km/h
154 05-06-2022 12:45:00 18.6 C 14.96 g/m*3 18.6 C 3.2 km/h
155 05-06-2022 12:50:00 18.6 C 14.96 g/m*3 18.6 C 1.6 km/h
156 05-06-2022 12:55:00 18.6 C 14.96 g/m*3 18.6 C 1.6 km/h
157 05-06-2022 13:00:00 18.6 C 14.96 g/m*3 18.6 C 1.6 km/h
158 05-06-2022 13:05:00 18.6 C 14.96 g/m*3 18.6 C 0 km/h
159 05-06-2022 13:10:00 18.6 C 14.96 g/m*3 18.6 C 0 km/h
160 05-06-2022 13:15:00 18.6 C 14.96 g/m*3 18.6 C 4.8 km/h
161 05-06-2022 13:20:00 18.6 C 14.96 g/m*3 18.6 C 1.6 km/h
162 05-06-2022 13:25:00 18.6 C 14.96 g/m*3 18.6 C 0 km/h
163 05-06-2022 13:30:00 18.6 C 14.96 g/m*3 18.6 C 3.2 km/h
164 05-06-2022 13:35:00 18.6 C 14.96 g/m*3 18.6 C 4.8 km/h
165 05-06-2022 13:40:00 18.6 C 14.96 g/m*3 18.6 C 1.6 km/h
166 05-06-2022 13:45:00 18.6 C 14.96 g/m*3 18.6 C 1.6 km/h
167 05-06-2022 13:50:00 18.6 C 14.96 g/m*3 18.6 C 1.6 km/h
168 05-06-2022 13:55:00 18.6 C 15.12 g/m*3 18.6 C 3.2 km/h
169 05-06-2022 14:00:00 18.8 C 15.3 g/m*3 18.8 C 6.4 km/h
170 05-06-2022 14:05:00 18.9 C 15.39 g/m*3 18.9 C 8.1 km/h
171 05-06-2022 14:10:00 18.9 C 15.39 g/m*3 18.9 C 8.1 km/h
172 05-06-2022 14:15:00 19 C 15.48 g/m*3 19 C 6.4 km/h
173 05-06-2022 14:20:00 19.2 C 15.66 g/m*3 19.2 C 3.2 km/h
174 05-06-2022 14:25:00 19.5 C 15.94 g/m*3 19.5 C 1.6 km/h
175 05-06-2022 14:30:00 19.5 C 15.78 g/m*3 19.5 C 4.8 km/h
Sensor: Nr:Datum:Temp:Abs-Feuchte:Windchill:Wind:
Aussen-T/F 176 05-06-2022 14:35:00 19.4 C 15.68 g/m*3 19.4 C 3.2 km/h
177 05-06-2022 14:40:00 19.4 C 15.68 g/m*3 19.4 C 1.6 km/h
178 05-06-2022 14:45:00 19.4 C 15.68 g/m*3 19.4 C 9.7 km/h
179 05-06-2022 14:50:00 19.4 C 15.52 g/m*3 19.4 C 1.6 km/h
180 05-06-2022 14:55:00 19.5 C 15.78 g/m*3 19.5 C 0 km/h
181 05-06-2022 15:00:00 19.6 C 15.87 g/m*3 19.6 C 1.6 km/h
182 05-06-2022 15:05:00 19.8 C 16.06 g/m*3 19.8 C 0 km/h
183 05-06-2022 15:10:00 19.9 C 16.15 g/m*3 19.9 C 0 km/h
184 05-06-2022 15:15:00 20.2 C 16.44 g/m*3 20.2 C 3.2 km/h
185 05-06-2022 15:20:00 20.4 C 16.63 g/m*3 20.4 C 6.4 km/h
186 05-06-2022 15:25:00 20.8 C 17.02 g/m*3 20.8 C 8.1 km/h
187 05-06-2022 15:30:00 21.1 C 17.14 g/m*3 21.1 C 4.8 km/h
188 05-06-2022 15:35:00 21.1 C 16.77 g/m*3 21.1 C 3.2 km/h
189 05-06-2022 15:40:00 21.2 C 16.86 g/m*3 21.2 C 6.4 km/h
190 05-06-2022 15:45:00 21.3 C 16.78 g/m*3 21.3 C 3.2 km/h
191 05-06-2022 15:50:00 21.2 C 16.49 g/m*3 21.2 C 8.1 km/h
192 05-06-2022 15:55:00 21.2 C 16.49 g/m*3 21.2 C 3.2 km/h
193 05-06-2022 16:00:00 21.1 C 16.21 g/m*3 21.1 C 4.8 km/h
194 05-06-2022 16:05:00 21.1 C 16.58 g/m*3 21.1 C 1.6 km/h
195 05-06-2022 16:10:00 20.9 C 16.21 g/m*3 20.9 C 4.8 km/h
196 05-06-2022 16:15:00 20.6 C 15.75 g/m*3 20.6 C 1.6 km/h
197 05-06-2022 16:20:00 20.3 C 15.65 g/m*3 20.3 C 3.2 km/h
198 05-06-2022 16:25:00 20.2 C 15.74 g/m*3 20.2 C 1.6 km/h
199 05-06-2022 16:30:00 20 C 15.55 g/m*3 20 C 8.1 km/h
200 05-06-2022 16:35:00 19.9 C 15.63 g/m*3 19.9 C 4.8 km/h
Sensor: Nr:Datum:Temp:Abs-Feuchte:Windchill:Wind:
Aussen-T/F 201 05-06-2022 16:40:00 19.8 C 15.54 g/m*3 19.8 C 3.2 km/h
202 05-06-2022 16:45:00 19.8 C 15.71 g/m*3 19.8 C 6.4 km/h
203 05-06-2022 16:50:00 19.8 C 15.71 g/m*3 19.8 C 9.7 km/h
204 05-06-2022 16:55:00 19.9 C 15.98 g/m*3 19.9 C 1.6 km/h
205 05-06-2022 17:00:00 20.1 C 16.17 g/m*3 20.1 C 0 km/h
206 05-06-2022 17:05:00 20.2 C 16.26 g/m*3 20.2 C 6.4 km/h
207 05-06-2022 17:10:00 20.3 C 16.36 g/m*3 20.3 C 8.1 km/h
208 05-06-2022 17:15:00 20.2 C 16.26 g/m*3 20.2 C 8.1 km/h
209 05-06-2022 17:20:00 20.3 C 16.36 g/m*3 20.3 C 6.4 km/h
210 05-06-2022 17:25:00 20.3 C 16.18 g/m*3 20.3 C 3.2 km/h
211 05-06-2022 17:30:00 20.3 C 16.18 g/m*3 20.3 C 14.5 km/h
212 05-06-2022 17:35:00 20.2 C 16.09 g/m*3 20.2 C 4.8 km/h
213 05-06-2022 17:40:00 20.2 C 16.09 g/m*3 20.2 C 9.7 km/h
214 05-06-2022 17:45:00 20 C 15.9 g/m*3 20 C 9.7 km/h
215 05-06-2022 17:50:00 19.8 C 15.54 g/m*3 19.8 C 12.9 km/h
216 05-06-2022 17:55:00 19.6 C 15.36 g/m*3 19.6 C 19.3 km/h
217 05-06-2022 18:00:00 19.3 C 15.09 g/m*3 19.3 C 19.3 km/h
218 05-06-2022 18:05:00 19.2 C 15.17 g/m*3 19.2 C 19.3 km/h
219 05-06-2022 18:10:00 19.1 C 15.08 g/m*3 19.1 C 16.1 km/h
220 05-06-2022 18:15:00 18.8 C 14.66 g/m*3 18.8 C 17.7 km/h
221 05-06-2022 18:20:00 18.6 C 14.48 g/m*3 18.6 C 20.9 km/h
222 05-06-2022 18:25:00 18.3 C 14.07 g/m*3 18.3 C 20.9 km/h
223 05-06-2022 18:30:00 18.2 C 14.14 g/m*3 18.2 C 16.1 km/h
224 05-06-2022 18:35:00 18.1 C 14.06 g/m*3 18.1 C 14.5 km/h
225 05-06-2022 18:40:00 18.1 C 14.21 g/m*3 18.1 C 20.9 km/h
Sensor: Nr:Datum:Temp:Abs-Feuchte:Windchill:Wind:
Aussen-T/F 226 05-06-2022 18:45:00 18 C 14.13 g/m*3 18 C 12.9 km/h
227 05-06-2022 18:50:00 18 C 14.13 g/m*3 18 C 9.7 km/h
228 05-06-2022 18:55:00 17.9 C 14.05 g/m*3 17.9 C 9.7 km/h
229 05-06-2022 19:00:00 17.9 C 14.05 g/m*3 17.9 C 3.2 km/h
230 05-06-2022 19:05:00 17.9 C 14.05 g/m*3 17.9 C 3.2 km/h
231 05-06-2022 19:10:00 17.9 C 14.2 g/m*3 17.9 C 4.8 km/h
232 05-06-2022 19:15:00 17.9 C 14.2 g/m*3 17.9 C 1.6 km/h
233 05-06-2022 19:20:00 17.8 C 14.12 g/m*3 17.8 C 1.6 km/h
234 05-06-2022 19:25:00 17.8 C 14.12 g/m*3 17.8 C 6.4 km/h
235 05-06-2022 19:30:00 17.7 C 14.03 g/m*3 17.7 C 9.7 km/h
236 05-06-2022 19:35:00 17.7 C 14.03 g/m*3 17.7 C 8.1 km/h
237 05-06-2022 19:40:00 17.7 C 14.03 g/m*3 17.7 C 9.7 km/h
238 05-06-2022 19:45:00 17.6 C 13.95 g/m*3 17.6 C 16.1 km/h
239 05-06-2022 19:50:00 17.5 C 13.87 g/m*3 17.5 C 9.7 km/h
240 05-06-2022 19:55:00 17.4 C 13.78 g/m*3 17.4 C 8.1 km/h
241 05-06-2022 20:00:00 17.4 C 13.78 g/m*3 17.4 C 12.9 km/h
242 05-06-2022 20:05:00 17.3 C 13.7 g/m*3 17.3 C 9.7 km/h
243 05-06-2022 20:10:00 17.2 C 13.62 g/m*3 17.2 C 16.1 km/h
244 05-06-2022 20:15:00 17.1 C 13.54 g/m*3 17.1 C 12.9 km/h
245 05-06-2022 20:20:00 17.1 C 13.54 g/m*3 17.1 C 9.7 km/h
246 05-06-2022 20:25:00 17.1 C 13.54 g/m*3 17.1 C 11.3 km/h
247 05-06-2022 20:30:00 17 C 13.46 g/m*3 17 C 6.4 km/h
248 05-06-2022 20:35:00 17 C 13.46 g/m*3 17 C 9.7 km/h
249 05-06-2022 20:40:00 16.9 C 13.38 g/m*3 16.9 C 11.3 km/h
250 05-06-2022 20:45:00 16.9 C 13.38 g/m*3 16.9 C 8.1 km/h
Sensor: Nr:Datum:Temp:Abs-Feuchte:Windchill:Wind:
Aussen-T/F 251 05-06-2022 20:50:00 16.8 C 13.3 g/m*3 16.8 C 6.4 km/h
252 05-06-2022 20:55:00 16.8 C 13.3 g/m*3 16.8 C 11.3 km/h
253 05-06-2022 21:00:00 16.8 C 13.44 g/m*3 16.8 C 8.1 km/h
254 05-06-2022 21:05:00 16.7 C 13.36 g/m*3 16.7 C 9.7 km/h
255 05-06-2022 21:10:00 16.7 C 13.36 g/m*3 16.7 C 8.1 km/h
256 05-06-2022 21:15:00 16.7 C 13.36 g/m*3 16.7 C 9.7 km/h
257 05-06-2022 21:20:00 16.7 C 13.36 g/m*3 16.7 C 11.3 km/h
258 05-06-2022 21:25:00 16.7 C 13.36 g/m*3 16.7 C 12.9 km/h
259 05-06-2022 21:30:00 16.7 C 13.36 g/m*3 16.7 C 19.3 km/h
260 05-06-2022 21:35:00 16.7 C 13.36 g/m*3 16.7 C 9.7 km/h
261 05-06-2022 21:40:00 16.7 C 13.36 g/m*3 16.7 C 17.7 km/h
262 05-06-2022 21:45:00 16.6 C 13.28 g/m*3 16.6 C 16.1 km/h
263 05-06-2022 21:50:00 16.6 C 13.28 g/m*3 16.6 C 19.3 km/h
264 05-06-2022 21:55:00 16.6 C 13.28 g/m*3 16.6 C 14.5 km/h
265 05-06-2022 22:00:00 16.7 C 13.36 g/m*3 16.7 C 14.5 km/h
266 05-06-2022 22:05:00 16.7 C 13.36 g/m*3 16.7 C 12.9 km/h
267 05-06-2022 22:10:00 16.7 C 13.36 g/m*3 16.7 C 11.3 km/h
268 05-06-2022 22:15:00 16.7 C 13.36 g/m*3 16.7 C 12.9 km/h
269 05-06-2022 22:20:00 16.7 C 13.36 g/m*3 16.7 C 6.4 km/h
270 05-06-2022 22:25:00 16.7 C 13.36 g/m*3 16.7 C 11.3 km/h
271 05-06-2022 22:30:00 16.6 C 13.28 g/m*3 16.6 C 8.1 km/h
272 05-06-2022 22:35:00 16.6 C 13.28 g/m*3 16.6 C 6.4 km/h
273 05-06-2022 22:40:00 16.6 C 13.28 g/m*3 16.6 C 6.4 km/h
274 05-06-2022 22:45:00 16.6 C 13.28 g/m*3 16.6 C 4.8 km/h
275 05-06-2022 22:50:00 16.6 C 13.28 g/m*3 16.6 C 6.4 km/h
Sensor: Nr:Datum:Temp:Abs-Feuchte:Windchill:Wind:
Aussen-T/F 276 05-06-2022 22:55:00 16.6 C 13.28 g/m*3 16.6 C 6.4 km/h
277 05-06-2022 23:00:00 16.6 C 13.28 g/m*3 16.6 C 0 km/h
278 05-06-2022 23:05:00 16.6 C 13.28 g/m*3 16.6 C 0 km/h
279 05-06-2022 23:10:00 16.6 C 13.28 g/m*3 16.6 C 0 km/h
280 05-06-2022 23:15:00 16.6 C 13.28 g/m*3 16.6 C 0 km/h
281 05-06-2022 23:20:00 16.6 C 13.28 g/m*3 16.6 C 0 km/h
282 05-06-2022 23:25:00 16.6 C 13.28 g/m*3 16.6 C 4.8 km/h
283 05-06-2022 23:30:00 16.6 C 13.28 g/m*3 16.6 C 9.7 km/h
284 05-06-2022 23:35:00 16.6 C 13.28 g/m*3 16.6 C 4.8 km/h
285 05-06-2022 23:40:00 16.6 C 13.28 g/m*3 16.6 C 3.2 km/h
286 05-06-2022 23:45:00 16.6 C 13.28 g/m*3 16.6 C 1.6 km/h
287 05-06-2022 23:50:00 16.6 C 13.28 g/m*3 16.6 C 6.4 km/h
288 05-06-2022 23:55:00 16.5 C 13.2 g/m*3 16.5 C 3.2 km/h

Legende:
   Min
   Max


Maximal/Minimal-Werte vom 05.06.2022 - 05.06.2022

Sensor Min Max Avg
Temp
(Aussen-T/F)
16.2 °C
05-06-2022  04:10:00
21.3 °C
05-06-2022  15:45:00
18.14 °C
Abs-Feuchte
(Aussen-T/F)
12 g/m*3
05-06-2022  04:10:00
17.14 g/m*3
05-06-2022  15:30:00
13.83 g/m*3
Windchill
(Aussen-T/F)
16.2 C
05-06-2022  04:10:00
21.3 C
05-06-2022  15:45:00
18.07 C

Die Daten stammen von einer Davis Vantage Pro 2 Wetter-Station und werden unter Linux mit der Software wview2wettercgi und aufbereitet. Alle Angaben erfolgen ohne Gewähr für ihre Vollständigkeit oder Richtigkeit.
Kontakt: Rainer Krienke krienke@uni-koblenz.de . Meine Webseiten an der Uni Koblenz oder privat.
Version: $Revision: 0.78 $